Time;durP1;ratioP1;P1;durP2;ratioP2;P2;SDS_P1;SDS_P2;PMS_P1;PMS_P2;Temp;Humidity;BMP_temperature;BMP_pressure;BME280_temperature;BME280_humidity;BME280_pressure;Samples;Min_cycle;Max_cycle;Signal;HPM_P1;HPM_P2
2024/04/08 00:02:13;;;;;;;2.67;2.33;;;13.10;99.90;;;;;;5086001;28;20203;-60
2024/04/08 00:04:40;;;;;;;3.03;2.53;;;13.10;99.90;;;;;;5083086;28;20231;-59
2024/04/08 00:07:07;;;;;;;2.97;2.30;;;13.10;99.90;;;;;;5086322;28;20368;-60
2024/04/08 00:09:34;;;;;;;3.70;2.80;;;13.10;99.90;;;;;;5085883;28;20274;-59
2024/04/08 00:12:01;;;;;;;2.60;2.37;;;13.10;99.90;;;;;;5089187;28;20230;-60
2024/04/08 00:14:27;;;;;;;3.37;2.47;;;13.10;99.90;;;;;;5076917;28;20194;-60
2024/04/08 00:16:56;;;;;;;5.00;2.90;;;13.10;99.90;;;;;;5087150;28;20315;-60
2024/04/08 00:19:22;;;;;;;4.90;2.77;;;13.10;99.90;;;;;;5083373;28;20227;-60
2024/04/08 00:21:50;;;;;;;3.80;2.50;;;13.10;99.90;;;;;;5088371;28;20221;-59
2024/04/08 00:24:17;;;;;;;2.93;2.47;;;13.10;99.90;;;;;;5087360;27;20270;-59
2024/04/08 00:26:45;;;;;;;2.97;2.30;;;13.00;99.90;;;;;;5087233;28;20198;-60
2024/04/08 00:29:11;;;;;;;4.73;2.63;;;13.00;99.90;;;;;;5088568;28;20357;-59
2024/04/08 00:31:39;;;;;;;3.37;2.33;;;13.00;99.90;;;;;;5092540;28;20646;-59
2024/04/08 00:34:07;;;;;;;6.10;3.03;;;13.00;99.90;;;;;;5085675;28;20225;-60
2024/04/08 00:36:34;;;;;;;5.47;2.63;;;13.00;99.90;;;;;;5092705;28;20246;-60
2024/04/08 00:39:01;;;;;;;2.47;2.27;;;12.90;99.90;;;;;;5084076;28;20242;-60
2024/04/08 00:41:28;;;;;;;3.63;2.60;;;12.90;99.90;;;;;;5092632;28;20226;-60
2024/04/08 00:43:54;;;;;;;3.27;2.30;;;13.00;99.90;;;;;;5088806;28;20287;-60
2024/04/08 00:46:24;;;;;;;2.90;2.70;;;13.00;99.90;;;;;;5091595;28;20637;-60
2024/04/08 00:48:52;;;;;;;4.57;2.33;;;13.00;99.90;;;;;;5090075;28;20264;-59
2024/04/08 00:51:22;;;;;;;3.03;2.50;;;13.00;99.90;;;;;;5083960;28;20640;-60
2024/04/08 00:53:49;;;;;;;3.20;2.40;;;13.00;99.90;;;;;;5090149;28;20238;-60
2024/04/08 00:56:17;;;;;;;4.30;2.50;;;13.00;99.90;;;;;;5083875;28;20575;-60
2024/04/08 00:58:44;;;;;;;2.63;2.43;;;13.00;99.90;;;;;;5091266;28;20599;-60
2024/04/08 01:01:15;;;;;;;4.80;2.70;;;12.90;99.90;;;;;;5083809;28;20212;-59
2024/04/08 01:03:43;;;;;;;3.23;2.40;;;12.90;99.90;;;;;;5089182;28;20222;-60
2024/04/08 01:06:12;;;;;;;5.27;3.00;;;12.90;99.90;;;;;;5090785;28;20214;-59
2024/04/08 01:08:40;;;;;;;5.37;2.73;;;12.90;99.90;;;;;;5090615;28;20199;-59
2024/04/08 01:11:08;;;;;;;5.13;3.40;;;12.80;99.90;;;;;;5092047;28;20250;-59
2024/04/08 01:13:35;;;;;;;6.57;3.53;;;12.80;99.90;;;;;;5094686;28;20251;-59
2024/04/08 01:16:03;;;;;;;4.90;3.30;;;12.80;99.90;;;;;;5091483;28;20678;-59
2024/04/08 01:18:50;;;;;;;11.37;3.23;;;12.70;99.90;;;;;;5094543;28;20218;-59
2024/04/08 01:21:39;;;;;;;6.50;3.47;;;12.70;99.90;;;;;;5093489;28;20305;-58
2024/04/08 01:24:08;;;;;;;6.60;3.40;;;12.60;99.90;;;;;;5095881;28;20219;-59
2024/04/08 01:26:37;;;;;;;3.53;3.27;;;12.60;99.90;;;;;;5094738;28;20281;-59
2024/04/08 01:29:03;;;;;;;4.93;3.17;;;12.50;99.90;;;;;;5095741;28;20249;-59
2024/04/08 01:31:31;;;;;;;6.47;3.73;;;12.50;99.90;;;;;;5088888;28;20301;-58
2024/04/08 01:33:58;;;;;;;7.53;3.60;;;12.40;99.90;;;;;;5096481;28;20307;-59
2024/04/08 01:36:26;;;;;;;9.30;4.00;;;12.40;99.90;;;;;;5090455;27;20215;-59
2024/04/08 01:38:52;;;;;;;6.83;3.87;;;12.40;99.90;;;;;;5087693;27;20202;-59
2024/04/08 01:41:21;;;;;;;5.57;3.70;;;12.30;99.90;;;;;;5088477;28;20204;-59
2024/04/08 01:43:48;;;;;;;8.60;3.50;;;12.30;99.90;;;;;;5089197;28;20225;-58
2024/04/08 01:46:15;;;;;;;7.37;3.60;;;12.20;99.90;;;;;;5092586;28;20227;-59
2024/04/08 01:48:42;;;;;;;4.17;3.87;;;12.20;99.90;;;;;;5084225;28;20232;-59
2024/04/08 01:51:09;;;;;;;6.90;3.57;;;12.20;99.90;;;;;;5091165;28;20319;-59
2024/04/08 01:53:36;;;;;;;7.37;4.10;;;12.10;99.90;;;;;;5089150;28;20674;-59
2024/04/08 01:56:03;;;;;;;4.90;3.70;;;12.10;99.90;;;;;;5099598;28;20222;-60
2024/04/08 01:58:31;;;;;;;3.90;3.50;;;12.00;99.90;;;;;;5087756;27;20315;-59
2024/04/08 02:00:58;;;;;;;7.60;4.50;;;11.90;99.90;;;;;;5090234;28;20592;-59
2024/04/08 02:03:25;;;;;;;7.93;4.37;;;11.90;99.90;;;;;;5092934;28;20245;-59
2024/04/08 02:05:52;;;;;;;8.67;3.90;;;11.90;99.90;;;;;;5090416;28;20198;-59
2024/04/08 02:08:19;;;;;;;6.33;4.17;;;11.90;99.90;;;;;;5095315;28;20611;-59
2024/04/08 02:10:48;;;;;;;4.17;3.87;;;11.90;99.90;;;;;;5093827;28;20226;-59
2024/04/08 02:13:14;;;;;;;5.40;3.93;;;11.90;99.90;;;;;;5094430;27;20314;-59
2024/04/08 02:15:43;;;;;;;5.27;3.40;;;11.90;99.90;;;;;;5094241;27;20215;-59
2024/04/08 02:18:10;;;;;;;5.70;4.00;;;11.90;99.90;;;;;;5089598;27;20307;-59
2024/04/08 02:20:39;;;;;;;7.37;3.90;;;11.90;99.90;;;;;;5092071;28;20527;-59
2024/04/08 02:23:05;;;;;;;3.90;3.50;;;11.90;99.90;;;;;;5093566;28;20309;-59
2024/04/08 02:25:38;;;;;;;5.33;3.97;;;11.90;99.90;;;;;;5091801;27;20214;-59
2024/04/08 02:28:05;;;;;;;6.63;3.77;;;11.90;99.90;;;;;;5081894;28;20275;-59
2024/04/08 02:30:36;;;;;;;4.93;3.77;;;11.90;99.90;;;;;;5089511;28;20385;-59
2024/04/08 02:33:05;;;;;;;7.50;4.13;;;12.00;99.90;;;;;;5087721;28;20225;-58
2024/04/08 02:35:35;;;;;;;9.07;3.93;;;11.90;99.90;;;;;;5094549;28;20199;-60
2024/04/08 02:38:04;;;;;;;6.03;4.03;;;11.90;99.90;;;;;;5085522;28;20220;-58
2024/04/08 02:40:32;;;;;;;5.03;3.83;;;11.90;99.90;;;;;;5092010;28;20849;-59
2024/04/08 02:42:58;;;;;;;3.93;3.60;;;11.90;99.90;;;;;;5089628;28;20210;-58
2024/04/08 02:45:26;;;;;;;8.03;4.17;;;11.90;99.90;;;;;;5090389;27;20226;-58
2024/04/08 02:47:52;;;;;;;6.23;3.93;;;11.90;99.90;;;;;;5088490;28;20187;-59
2024/04/08 02:50:21;;;;;;;4.97;3.67;;;11.90;99.90;;;;;;5104861;28;20212;-59
2024/04/08 02:52:48;;;;;;;10.20;4.13;;;11.90;99.90;;;;;;5090799;28;20222;-59
2024/04/08 02:55:15;;;;;;;7.60;4.43;;;11.80;99.90;;;;;;5089401;28;20246;-59
2024/04/08 02:57:42;;;;;;;8.77;4.53;;;11.80;99.90;;;;;;5092692;28;20220;-59
2024/04/08 03:00:10;;;;;;;4.73;4.33;;;11.80;99.90;;;;;;5092134;28;20218;-59
2024/04/08 03:02:37;;;;;;;8.10;4.67;;;11.80;99.90;;;;;;5086809;28;20281;-57
2024/04/08 03:05:04;;;;;;;5.70;4.37;;;11.80;99.90;;;;;;5089649;28;20195;-58
2024/04/08 03:07:32;;;;;;;7.20;4.37;;;11.70;99.90;;;;;;5083087;28;20211;-59
2024/04/08 03:10:00;;;;;;;7.67;4.73;;;11.70;99.90;;;;;;5088796;28;20229;-59
2024/04/08 03:12:26;;;;;;;8.40;5.10;;;11.60;99.90;;;;;;5086067;28;20234;-59
2024/04/08 03:14:54;;;;;;;7.53;5.13;;;11.60;99.90;;;;;;5087856;28;20182;-59
2024/04/08 03:17:23;;;;;;;6.87;4.90;;;11.50;99.90;;;;;;5089551;28;20187;-58
2024/04/08 03:19:53;;;;;;;8.67;5.00;;;11.50;99.90;;;;;;5092311;28;20741;-58
2024/04/08 03:22:20;;;;;;;8.90;5.00;;;11.50;99.90;;;;;;5087554;28;20221;-59
2024/04/08 03:24:48;;;;;;;5.20;4.60;;;11.40;99.90;;;;;;5089611;28;20577;-58
2024/04/08 03:27:15;;;;;;;9.07;5.30;;;11.40;99.90;;;;;;5085822;28;20210;-59
2024/04/08 03:29:42;;;;;;;7.43;5.40;;;11.30;99.90;;;;;;5083554;28;20667;-58
2024/04/08 03:32:09;;;;;;;9.60;5.53;;;11.30;99.90;;;;;;5088746;28;20200;-59
2024/04/08 03:34:36;;;;;;;7.80;5.30;;;11.30;99.90;;;;;;5087679;28;20588;-59
2024/04/08 03:37:04;;;;;;;10.27;5.47;;;11.30;99.90;;;;;;5083049;28;20226;-59
2024/04/08 03:39:32;;;;;;;6.17;5.23;;;11.30;99.90;;;;;;5089689;28;20222;-58
2024/04/08 03:41:59;;;;;;;8.03;5.60;;;11.20;99.90;;;;;;5085143;28;20302;-59
2024/04/08 03:44:27;;;;;;;8.17;5.60;;;11.30;99.90;;;;;;5087220;28;20202;-58
2024/04/08 03:46:54;;;;;;;8.63;5.63;;;11.20;99.90;;;;;;5085016;28;20308;-59
2024/04/08 03:49:22;;;;;;;7.10;6.00;;;11.20;99.90;;;;;;5083312;28;20360;-59
2024/04/08 03:51:48;;;;;;;9.33;5.83;;;11.20;99.90;;;;;;5091551;28;20223;-58
2024/04/08 03:54:16;;;;;;;10.30;6.10;;;11.20;99.90;;;;;;5073908;27;20222;-58
2024/04/08 03:56:42;;;;;;;8.63;6.17;;;11.20;99.90;;;;;;5085169;28;20572;-59
2024/04/08 03:59:11;;;;;;;10.67;5.57;;;11.20;99.90;;;;;;5087712;28;20678;-59
2024/04/08 04:01:37;;;;;;;9.90;6.37;;;11.20;99.90;;;;;;5083886;28;20219;-59
2024/04/08 04:04:05;;;;;;;9.20;5.40;;;11.20;99.90;;;;;;5081287;28;20263;-59
2024/04/08 04:06:31;;;;;;;10.07;6.40;;;11.20;99.90;;;;;;5088329;28;20217;-59
2024/04/08 04:08:59;;;;;;;9.47;6.03;;;11.20;99.90;;;;;;5092056;28;20632;-58
2024/04/08 04:11:27;;;;;;;9.07;5.90;;;11.20;99.90;;;;;;5067967;28;20226;-58
2024/04/08 04:13:54;;;;;;;10.10;5.53;;;11.20;99.90;;;;;;5065770;28;20335;-58
2024/04/08 04:16:23;;;;;;;8.37;5.40;;;11.20;99.90;;;;;;5069545;28;20256;-59
2024/04/08 04:18:52;;;;;;;8.57;5.07;;;11.20;99.90;;;;;;5067227;28;20222;-59
2024/04/08 04:21:19;;;;;;;10.83;5.57;;;11.20;99.90;;;;;;5071533;28;20298;-59
2024/04/08 04:23:49;;;;;;;6.87;5.17;;;11.20;99.90;;;;;;5063559;28;20207;-59
2024/04/08 04:26:18;;;;;;;12.87;5.93;;;11.10;99.90;;;;;;5067644;28;20243;-59
2024/04/08 04:28:48;;;;;;;10.60;5.17;;;11.10;99.90;;;;;;5063915;28;20219;-59
2024/04/08 04:31:14;;;;;;;8.27;5.37;;;11.10;99.90;;;;;;5067066;28;20633;-59
2024/04/08 04:33:44;;;;;;;10.10;5.80;;;11.10;99.90;;;;;;5070402;28;20221;-59
2024/04/08 04:36:10;;;;;;;6.47;5.33;;;11.10;99.90;;;;;;5066660;28;20230;-59
2024/04/08 04:38:38;;;;;;;7.83;5.43;;;11.00;99.90;;;;;;5066605;28;20814;-58
2024/04/08 04:41:05;;;;;;;8.73;5.60;;;10.90;99.90;;;;;;5064601;28;20191;-59
2024/04/08 04:43:34;;;;;;;9.50;5.67;;;10.90;99.90;;;;;;5063693;28;20221;-59
2024/04/08 04:46:01;;;;;;;6.33;5.37;;;10.90;99.90;;;;;;5068563;28;20247;-59
2024/04/08 04:48:28;;;;;;;8.63;5.67;;;10.90;99.90;;;;;;5065099;28;20233;-59
2024/04/08 04:50:56;;;;;;;5.23;4.73;;;10.80;99.90;;;;;;5068692;28;20239;-59
2024/04/08 04:53:24;;;;;;;8.83;5.53;;;10.80;99.90;;;;;;5067859;28;20200;-59
2024/04/08 04:55:52;;;;;;;7.50;5.50;;;10.80;99.90;;;;;;5072492;28;20223;-60
2024/04/08 04:58:19;;;;;;;10.57;5.77;;;10.80;99.90;;;;;;5069377;28;20219;-60
2024/04/08 05:00:47;;;;;;;8.17;5.23;;;10.70;99.90;;;;;;5075098;28;20210;-59
2024/04/08 05:03:14;;;;;;;7.67;5.10;;;10.70;99.90;;;;;;5069906;28;20229;-59
2024/04/08 05:05:41;;;;;;;10.17;5.50;;;10.70;99.90;;;;;;5073666;28;20637;-59
2024/04/08 05:08:10;;;;;;;11.07;5.20;;;10.70;99.90;;;;;;5066862;28;20702;-59
2024/04/08 05:10:37;;;;;;;6.50;4.97;;;10.70;99.90;;;;;;5073730;28;20229;-59
2024/04/08 05:13:05;;;;;;;6.83;5.10;;;10.60;99.90;;;;;;5097432;27;20666;-59
2024/04/08 05:15:31;;;;;;;8.27;5.50;;;10.60;99.90;;;;;;5094364;28;20297;-59
2024/04/08 05:17:59;;;;;;;8.03;5.40;;;10.60;99.90;;;;;;5093274;28;20218;-59
2024/04/08 05:20:28;;;;;;;7.80;5.30;;;10.60;99.90;;;;;;5093432;28;20201;-59
2024/04/08 05:22:56;;;;;;;12.00;5.90;;;10.70;99.90;;;;;;5094186;28;20226;-60
2024/04/08 05:25:24;;;;;;;9.83;5.37;;;10.70;99.90;;;;;;5090031;28;20215;-59
2024/04/08 05:27:51;;;;;;;8.20;5.70;;;10.70;99.90;;;;;;5089382;28;20283;-59
2024/04/08 05:30:18;;;;;;;7.53;5.63;;;10.80;99.90;;;;;;5078584;27;20222;-59
2024/04/08 05:32:46;;;;;;;8.13;5.57;;;10.80;99.90;;;;;;5096375;28;20278;-59
2024/04/08 05:35:13;;;;;;;8.53;5.60;;;10.80;99.90;;;;;;5089362;28;20290;-60
2024/04/08 05:37:40;;;;;;;6.77;5.30;;;10.90;99.90;;;;;;5088044;28;20243;-60
2024/04/08 05:40:11;;;;;;;9.07;5.80;;;10.90;99.90;;;;;;5075782;28;20222;-60
2024/04/08 05:42:40;;;;;;;5.97;5.37;;;10.90;99.90;;;;;;5092592;27;20216;-60
2024/04/08 05:45:07;;;;;;;9.13;5.33;;;11.00;99.90;;;;;;5093014;28;20630;-60
2024/04/08 05:47:37;;;;;;;8.40;5.30;;;11.00;99.90;;;;;;5093699;28;20191;-60
2024/04/08 05:50:04;;;;;;;14.77;8.23;;;11.10;99.90;;;;;;5091387;28;20820;-60
2024/04/08 05:52:33;;;;;;;42.50;22.80;;;11.20;99.90;;;;;;5092338;28;20219;-59
2024/04/08 05:55:00;;;;;;;37.20;20.67;;;11.30;99.90;;;;;;5090530;28;20219;-59
2024/04/08 05:57:27;;;;;;;25.07;15.47;;;11.30;99.90;;;;;;5092026;28;20222;-59
2024/04/08 05:59:55;;;;;;;22.53;14.43;;;11.40;99.90;;;;;;5091047;28;20286;-59
2024/04/08 06:02:23;;;;;;;19.83;12.87;;;11.50;99.90;;;;;;5091461;28;20186;-59
2024/04/08 06:04:53;;;;;;;21.60;13.33;;;11.60;99.90;;;;;;5086304;28;20549;-59
2024/04/08 06:07:21;;;;;;;23.40;11.93;;;11.70;99.90;;;;;;5087584;28;20682;-59
2024/04/08 06:09:47;;;;;;;11.00;7.90;;;11.80;99.90;;;;;;5083301;28;20290;-59
2024/04/08 06:12:14;;;;;;;13.43;7.73;;;11.80;99.90;;;;;;5092284;28;20218;-59
2024/04/08 06:14:41;;;;;;;7.27;5.93;;;11.80;99.90;;;;;;5092089;28;20860;-59
2024/04/08 06:17:10;;;;;;;11.07;6.47;;;11.80;99.90;;;;;;5088029;28;20204;-59
2024/04/08 06:19:36;;;;;;;7.37;5.90;;;11.80;99.90;;;;;;5089472;28;20927;-59
2024/04/08 06:22:04;;;;;;;11.47;6.60;;;11.90;99.90;;;;;;5089687;28;20222;-59
2024/04/08 06:24:30;;;;;;;5.87;5.20;;;12.00;99.90;;;;;;5090305;28;20259;-59
2024/04/08 06:26:58;;;;;;;13.10;6.37;;;12.10;99.90;;;;;;5092673;28;20672;-59
2024/04/08 06:29:24;;;;;;;8.63;5.87;;;12.00;99.90;;;;;;5089538;28;20203;-59
2024/04/08 06:31:52;;;;;;;11.73;6.60;;;11.90;99.90;;;;;;5093180;28;20218;-60
2024/04/08 06:34:19;;;;;;;10.13;6.30;;;11.80;99.90;;;;;;5087846;28;20211;-59
2024/04/08 06:36:47;;;;;;;8.90;5.87;;;12.00;99.90;;;;;;5097081;27;20218;-59
2024/04/08 06:39:13;;;;;;;7.17;5.90;;;12.00;99.90;;;;;;5091390;28;20298;-59
2024/04/08 06:41:40;;;;;;;8.83;5.47;;;12.30;99.90;;;;;;5092072;28;20212;-60
2024/04/08 06:44:07;;;;;;;8.90;6.60;;;12.50;99.90;;;;;;5091544;28;20199;-60
2024/04/08 06:46:34;;;;;;;9.87;7.43;;;12.60;99.90;;;;;;5102095;28;20298;-60
2024/04/08 06:49:00;;;;;;;10.60;7.20;;;12.80;99.90;;;;;;5087330;27;20344;-60
2024/04/08 06:51:31;;;;;;;7.90;6.63;;;12.90;99.90;;;;;;5087914;28;20314;-59
2024/04/08 06:53:57;;;;;;;9.60;6.43;;;13.00;99.90;;;;;;5086286;28;20224;-59
2024/04/08 06:56:25;;;;;;;6.73;5.93;;;12.80;99.90;;;;;;5089742;28;20896;-59
2024/04/08 06:58:51;;;;;;;9.43;6.27;;;12.80;99.90;;;;;;5094350;28;20711;-59
2024/04/08 07:01:20;;;;;;;10.73;6.03;;;13.00;99.90;;;;;;5091780;28;20233;-59
2024/04/08 07:03:47;;;;;;;10.30;5.93;;;13.10;99.90;;;;;;5088555;28;20706;-59
2024/04/08 07:06:15;;;;;;;13.47;5.30;;;13.40;99.90;;;;;;5084100;28;20609;-60
2024/04/08 07:08:44;;;;;;;5.43;4.53;;;13.60;99.90;;;;;;5089810;28;20190;-60
2024/04/08 07:11:11;;;;;;;4.70;4.30;;;13.80;99.90;;;;;;5088184;28;20318;-60
2024/04/08 07:13:40;;;;;;;6.53;3.80;;;13.60;99.90;;;;;;5086201;28;20279;-60
2024/04/08 07:16:07;;;;;;;6.57;4.50;;;13.80;99.90;;;;;;5088804;28;20238;-59
2024/04/08 07:18:34;;;;;;;8.00;4.60;;;13.90;99.90;;;;;;5089829;28;20258;-60
2024/04/08 07:21:02;;;;;;;4.53;4.23;;;14.10;99.90;;;;;;5073126;28;20299;-60
2024/04/08 07:23:29;;;;;;;5.07;4.03;;;14.30;99.90;;;;;;5091906;28;20196;-60
2024/04/08 07:25:57;;;;;;;9.47;4.50;;;14.30;99.90;;;;;;5085126;28;20678;-60
2024/04/08 07:28:24;;;;;;;4.03;3.63;;;14.20;99.90;;;;;;5085097;28;20232;-60
2024/04/08 07:30:53;;;;;;;8.83;3.73;;;14.30;99.90;;;;;;5089066;28;20220;-60
2024/04/08 07:33:19;;;;;;;3.47;3.27;;;14.60;99.90;;;;;;5085418;27;20257;-60
2024/04/08 07:35:47;;;;;;;4.43;3.50;;;14.90;99.90;;;;;;5085335;28;20249;-60
2024/04/08 07:38:13;;;;;;;3.20;2.90;;;14.90;99.90;;;;;;5087216;28;20651;-60
2024/04/08 07:40:42;;;;;;;5.43;2.93;;;14.70;99.90;;;;;;5089995;28;20225;-60
2024/04/08 07:43:10;;;;;;;4.13;3.20;;;15.00;99.90;;;;;;5089147;28;20301;-59
2024/04/08 07:45:39;;;;;;;3.60;3.30;;;15.20;99.90;;;;;;5089398;28;20218;-60
2024/04/08 07:48:06;;;;;;;6.07;3.00;;;15.40;99.90;;;;;;5072311;28;20561;-59
2024/04/08 07:50:33;;;;;;;3.30;3.00;;;15.40;99.90;;;;;;5088971;28;20565;-59
2024/04/08 07:53:04;;;;;;;3.80;3.17;;;15.20;99.90;;;;;;5086133;28;20225;-60
2024/04/08 07:55:31;;;;;;;3.20;2.90;;;15.40;99.90;;;;;;5087174;28;20728;-59
2024/04/08 07:57:58;;;;;;;3.17;2.83;;;15.20;99.90;;;;;;5087317;28;20309;-59
2024/04/08 08:00:27;;;;;;;4.40;2.60;;;15.10;99.90;;;;;;5083649;27;20234;-59
2024/04/08 08:02:53;;;;;;;2.30;2.20;;;15.10;99.90;;;;;;5091259;28;20291;-59
2024/04/08 08:05:21;;;;;;;3.27;2.40;;;15.20;99.90;;;;;;5088037;28;20189;-60
2024/04/08 08:07:47;;;;;;;2.60;2.40;;;15.20;99.90;;;;;;5083571;28;20383;-60
2024/04/08 08:10:15;;;;;;;3.17;2.40;;;15.20;99.90;;;;;;5085484;28;20251;-59
2024/04/08 08:12:42;;;;;;;2.67;2.57;;;15.10;99.90;;;;;;5084917;28;20763;-60
2024/04/08 08:15:10;;;;;;;3.10;2.67;;;15.10;99.90;;;;;;5086830;28;20220;-60
2024/04/08 08:17:39;;;;;;;3.13;2.93;;;15.10;99.90;;;;;;5085119;27;20263;-59
2024/04/08 08:20:07;;;;;;;4.10;2.80;;;15.20;99.90;;;;;;5092951;28;20222;-60
2024/04/08 08:22:35;;;;;;;3.87;3.50;;;15.20;99.90;;;;;;5088314;28;21227;-60
2024/04/08 08:25:03;;;;;;;2.87;2.63;;;15.40;99.90;;;;;;5088215;28;20738;-60
2024/04/08 08:27:30;;;;;;;2.93;2.60;;;15.50;99.90;;;;;;5089292;28;20435;-60
2024/04/08 08:29:58;;;;;;;3.17;2.77;;;15.70;99.90;;;;;;5086698;28;20230;-59
2024/04/08 08:32:25;;;;;;;2.73;2.50;;;15.80;99.90;;;;;;5089211;27;20220;-60
2024/04/08 08:34:54;;;;;;;2.40;2.00;;;16.20;99.90;;;;;;5085572;28;20298;-60
2024/04/08 08:37:23;;;;;;;2.40;2.20;;;16.20;99.90;;;;;;5086301;28;20233;-60
2024/04/08 08:39:51;;;;;;;3.80;2.40;;;16.20;99.90;;;;;;5085018;28;20214;-60
2024/04/08 08:42:22;;;;;;;4.03;2.37;;;16.50;99.90;;;;;;5085098;28;20245;-60
2024/04/08 08:44:52;;;;;;;2.50;2.33;;;16.90;99.90;;;;;;5084605;28;20194;-60
2024/04/08 08:47:22;;;;;;;4.90;2.60;;;17.60;99.90;;;;;;5086854;28;20328;-60
2024/04/08 08:49:52;;;;;;;2.90;2.10;;;18.20;99.90;;;;;;5086914;28;20232;-60
2024/04/08 08:52:21;;;;;;;2.47;2.27;;;18.50;92.90;;;;;;5086442;28;20246;-60
2024/04/08 08:54:50;;;;;;;3.23;2.10;;;18.90;82.10;;;;;;5089663;28;20253;-61
2024/04/08 08:57:18;;;;;;;2.93;2.40;;;18.80;37.70;;;;;;5085878;28;20219;-61
2024/04/08 08:59:47;;;;;;;3.20;2.20;;;18.90;35.30;;;;;;5085430;28;20194;-61
2024/04/08 09:02:15;;;;;;;2.67;2.40;;;19.20;47.40;;;;;;5084307;28;20269;-60
2024/04/08 09:04:41;;;;;;;2.73;2.37;;;19.50;26.60;;;;;;5085476;28;20214;-60
2024/04/08 09:07:10;;;;;;;3.20;2.60;;;19.50;8.70;;;;;;5087783;28;20222;-61
2024/04/08 09:09:38;;;;;;;2.70;2.50;;;19.20;1.00;;;;;;5088076;28;20306;-61
2024/04/08 09:12:11;;;;;;;3.77;2.90;;;19.20;1.00;;;;;;5080848;28;20240;-61
2024/04/08 09:14:37;;;;;;;2.30;2.20;;;19.10;3.00;;;;;;5091325;28;20205;-61
2024/04/08 09:17:06;;;;;;;2.47;2.27;;;19.10;1.00;;;;;;5086351;28;20266;-61
2024/04/08 09:19:33;;;;;;;3.10;2.27;;;18.60;1.00;;;;;;5085982;28;20250;-61
2024/04/08 09:22:00;;;;;;;3.37;2.83;;;18.40;19.40;;;;;;5087216;28;20238;-61
2024/04/08 09:24:28;;;;;;;3.70;2.63;;;18.00;1.00;;;;;;5088229;28;20218;-61
2024/04/08 09:26:57;;;;;;;4.73;2.57;;;18.00;54.80;;;;;;5088940;28;20191;-61
2024/04/08 09:29:23;;;;;;;2.50;2.40;;;18.30;28.80;;;;;;5091740;28;20288;-61
2024/04/08 09:31:51;;;;;;;3.83;2.47;;;18.40;1.00;;;;;;5071573;28;20306;-61
2024/04/08 09:34:18;;;;;;;3.03;2.43;;;18.30;35.30;;;;;;5092522;28;20302;-61
2024/04/08 09:36:45;;;;;;;2.30;2.10;;;18.00;1.00;;;;;;5092109;28;20234;-61
2024/04/08 09:39:13;;;;;;;2.07;1.97;;;18.00;21.10;;;;;;5092569;27;20218;-60
2024/04/08 09:41:41;;;;;;;2.67;2.10;;;18.20;1.00;;;;;;5092023;28;20213;-61
2024/04/08 09:44:12;;;;;;;2.87;1.80;;;18.20;25.70;;;;;;5099609;28;20282;-60
2024/04/08 09:46:41;;;;;;;2.27;2.13;;;18.60;16.80;;;;;;5091727;28;20229;-60
2024/04/08 09:49:11;;;;;;;2.17;1.90;;;18.90;1.00;;;;;;5094396;28;20330;-60
2024/04/08 09:51:41;;;;;;;2.07;1.97;;;19.20;7.50;;;;;;5096253;28;20305;-61
2024/04/08 09:54:08;;;;;;;2.37;1.93;;;19.10;1.00;;;;;;5092313;28;20230;-60
2024/04/08 09:56:40;;;;;;;3.13;1.70;;;19.40;1.00;;;;;;5093564;28;20285;-60
2024/04/08 09:59:13;;;;;;;2.43;1.60;;;19.70;1.00;;;;;;5090987;28;20210;-60
2024/04/08 10:01:40;;;;;;;2.73;1.77;;;19.60;1.00;;;;;;5089606;28;20690;-61
2024/04/08 10:04:13;;;;;;;1.83;1.43;;;19.80;1.00;;;;;;5092914;28;20332;-60
2024/04/08 10:06:42;;;;;;;2.67;1.60;;;19.80;1.00;;;;;;5097907;27;20313;-60
2024/04/08 10:09:09;;;;;;;1.97;1.77;;;19.90;1.00;;;;;;5097380;28;20219;-60
2024/04/08 10:11:37;;;;;;;1.50;1.33;;;19.60;1.00;;;;;;5092178;27;20231;-61
2024/04/08 10:14:16;;;;;;;1.77;1.53;;;19.40;1.00;;;;;;5096053;28;20294;-61
2024/04/08 10:16:47;;;;;;;1.30;1.30;;;19.50;1.00;;;;;;5089782;28;20301;-61
2024/04/08 10:19:14;;;;;;;1.40;1.40;;;19.60;1.00;;;;;;5096697;28;20259;-60
2024/04/08 10:21:42;;;;;;;3.60;1.50;;;19.50;1.00;;;;;;5089770;27;20247;-61
2024/04/08 10:24:28;;;;;;;1.37;1.37;;;19.80;1.00;;;;;;5095440;28;20721;-61
2024/04/08 10:27:01;;;;;;;1.40;1.30;;;20.60;1.00;;;;;;5093126;28;20381;-60
2024/04/08 10:29:31;;;;;;;1.50;1.40;;;21.30;1.00;;;;;;5094880;28;20284;-61
2024/04/08 10:31:59;;;;;;;2.70;1.40;;;21.00;1.00;;;;;;5096244;28;20706;-61
2024/04/08 10:34:25;;;;;;;1.53;1.47;;;20.50;1.00;;;;;;5090631;28;20215;-60
2024/04/08 10:36:55;;;;;;;2.10;1.50;;;19.50;1.00;;;;;;5091666;28;20225;-60
2024/04/08 10:39:26;;;;;;;3.80;1.70;;;19.00;1.00;;;;;;5090633;28;20218;-61
2024/04/08 10:41:55;;;;;;;2.63;1.53;;;19.30;1.00;;;;;;5089535;27;20191;-60
2024/04/08 10:44:21;;;;;;;2.50;1.40;;;19.30;1.00;;;;;;5093592;28;20300;-61
2024/04/08 10:46:50;;;;;;;2.67;1.50;;;18.90;1.00;;;;;;5097220;28;20242;-61
2024/04/08 10:49:17;;;;;;;3.33;1.57;;;18.60;1.00;;;;;;5091502;28;20219;-61
2024/04/08 10:51:48;;;;;;;1.73;1.23;;;18.60;1.00;;;;;;5089735;28;20244;-60
2024/04/08 10:54:14;;;;;;;1.37;1.20;;;18.50;1.00;;;;;;5089651;28;20229;-60
2024/04/08 10:56:42;;;;;;;1.40;1.30;;;18.50;1.00;;;;;;5090143;28;20194;-61
2024/04/08 10:59:09;;;;;;;1.50;1.40;;;18.40;1.00;;;;;;5075201;28;20290;-59
2024/04/08 11:01:36;;;;;;;1.50;1.40;;;18.30;1.00;;;;;;5094043;28;20298;-60
2024/04/08 11:04:04;;;;;;;3.27;1.50;;;18.30;1.00;;;;;;5087523;28;20215;-60
2024/04/08 11:06:33;;;;;;;1.70;1.60;;;18.30;25.50;;;;;;5092138;28;20302;-61
2024/04/08 11:08:59;;;;;;;2.07;1.50;;;18.20;32.70;;;;;;5096040;28;20226;-60
2024/04/08 11:11:27;;;;;;;4.47;1.70;;;18.20;7.70;;;;;;5091841;27;20226;-60
2024/04/08 11:13:54;;;;;;;2.13;2.00;;;18.10;2.20;;;;;;5101663;27;20224;-60
2024/04/08 11:16:21;;;;;;;3.80;2.03;;;18.10;24.20;;;;;;5081566;28;20249;-61
2024/04/08 11:18:48;;;;;;;2.70;1.90;;;18.10;23.00;;;;;;5091693;28;20219;-60
2024/04/08 11:21:16;;;;;;;2.87;1.67;;;18.20;29.70;;;;;;5087350;28;20302;-60
2024/04/08 11:23:43;;;;;;;2.70;2.00;;;18.30;34.50;;;;;;5093986;28;20286;-60
2024/04/08 11:26:11;;;;;;;3.97;2.10;;;18.50;5.60;;;;;;5091217;28;20667;-60
2024/04/08 11:28:37;;;;;;;4.93;2.10;;;18.60;10.30;;;;;;5096768;28;20738;-59
2024/04/08 11:31:06;;;;;;;4.47;2.20;;;18.50;1.00;;;;;;5094970;28;20210;-60
2024/04/08 11:33:32;;;;;;;1.80;1.80;;;18.60;25.20;;;;;;5090776;28;20233;-61
2024/04/08 11:35:59;;;;;;;3.67;2.13;;;18.80;1.00;;;;;;5085740;27;20214;-60
2024/04/08 11:38:27;;;;;;;8.60;2.10;;;19.00;1.00;;;;;;5097221;28;20544;-60
2024/04/08 11:40:57;;;;;;;2.00;1.90;;;19.30;1.00;;;;;;5076848;28;20255;-62
2024/04/08 11:43:24;;;;;;;2.00;1.90;;;19.70;1.00;;;;;;5075469;28;20266;-60
2024/04/08 11:45:51;;;;;;;2.17;2.07;;;19.60;1.00;;;;;;5088755;28;20230;-60
2024/04/08 11:48:19;;;;;;;2.10;1.90;;;19.80;1.00;;;;;;5095341;27;20302;-60
2024/04/08 11:50:47;;;;;;;1.90;1.83;;;19.90;1.00;;;;;;5091847;28;20205;-60
2024/04/08 11:53:13;;;;;;;2.33;2.17;;;20.00;1.00;;;;;;5095650;28;20255;-59
2024/04/08 11:55:42;;;;;;;4.00;1.83;;;19.90;1.00;;;;;;5094899;28;20219;-59
2024/04/08 11:58:10;;;;;;;3.63;2.20;;;20.10;1.00;;;;;;5091594;28;20305;-60
2024/04/08 12:00:38;;;;;;;2.10;1.93;;;21.10;1.00;;;;;;5093675;27;20254;-60
2024/04/08 12:03:05;;;;;;;2.67;1.90;;;22.10;1.00;;;;;;5088786;27;20237;-60
2024/04/08 12:05:51;;;;;;;3.80;1.90;;;22.20;1.00;;;;;;5094880;28;20199;-61
2024/04/08 12:08:18;;;;;;;2.37;2.00;;;23.10;99.90;;;;;;5094177;28;20216;-60
2024/04/08 12:10:46;;;;;;;2.37;2.10;;;22.90;1.00;;;;;;5092130;28;20304;-61
2024/04/08 12:13:15;;;;;;;2.70;2.00;;;22.30;99.90;;;;;;5101263;27;20296;-60
2024/04/08 12:15:42;;;;;;;1.90;1.80;;;22.30;1.00;;;;;;5086699;28;20224;-61
2024/04/08 12:18:09;;;;;;;4.97;1.90;;;23.00;99.90;;;;;;5085061;28;20231;-60
2024/04/08 12:20:36;;;;;;;2.70;2.27;;;23.30;1.00;;;;;;5091709;28;20245;-60
2024/04/08 12:23:03;;;;;;;3.00;1.90;;;23.50;93.70;;;;;;5095220;28;20206;-60
2024/04/08 12:25:31;;;;;;;1.97;1.60;;;23.70;1.00;;;;;;5095154;28;20256;-60
2024/04/08 12:28:00;;;;;;;2.30;1.87;;;24.10;1.00;;;;;;5095159;28;20277;-60
2024/04/08 12:30:29;;;;;;;2.67;2.00;;;24.10;1.00;;;;;;5081714;27;20229;-59
2024/04/08 12:32:56;;;;;;;3.63;1.63;;;23.40;99.90;;;;;;5096828;28;20299;-60
2024/04/08 12:35:23;;;;;;;2.10;1.90;;;22.60;1.00;;;;;;5097518;27;20581;-60
2024/04/08 12:37:50;;;;;;;4.63;2.00;;;22.40;99.90;;;;;;5092111;28;20370;-60
2024/04/08 12:40:17;;;;;;;3.80;1.90;;;22.90;99.90;;;;;;5084387;27;20213;-60
2024/04/08 12:43:05;;;;;;;3.53;2.27;;;23.20;89.40;;;;;;5095686;28;20606;-60
2024/04/08 12:45:32;;;;;;;2.10;1.90;;;22.90;14.90;;;;;;5089755;28;20231;-60
2024/04/08 12:47:59;;;;;;;2.20;1.93;;;22.40;1.00;;;;;;5099113;27;20259;-60
2024/04/08 12:50:25;;;;;;;1.83;1.73;;;21.80;1.00;;;;;;5100067;28;20199;-59
2024/04/08 12:52:53;;;;;;;3.87;1.97;;;21.60;1.00;;;;;;5094302;28;20218;-59